Terminal Aerodrome Forecast
Issued by NWS

Current Version | Previous Version | Graphics & Text | Print | Product List | Glossary On
Versions: 1 2 3 4 5 6 7 8 9 10 11 12 13 14 15 16 17 18 19 20 21 22 23 24
000
FTUS41 KPBZ 181000 AAB
TAFMGW
TAF AMD
KMGW 181001Z 1810/1906 VRB03KT 4SM BR BKN060
     FM181300 VRB04KT P6SM OVC050
     FM181600 04004KT P6SM VCSH BKN040
     FM190000 VRB02KT 4SM BR BKN100=

USA.gov is the U.S. government's official web portal to all federal, state and local government web resources and services.